createdAt,value
2024-01-09T00:01:13.899Z,21.33
2024-01-09T00:06:35.756Z,20.10
2024-01-09T00:11:57.723Z,17.70
2024-01-09T00:17:19.583Z,23.80
2024-01-09T00:22:42.356Z,18.50
2024-01-09T00:28:04.432Z,19.57
2024-01-09T00:33:26.628Z,19.30
2024-01-09T00:38:48.697Z,20.57
2024-01-09T00:44:10.609Z,17.83
2024-01-09T00:49:32.524Z,21.77
2024-01-09T00:54:54.417Z,21.90
2024-01-09T01:00:16.876Z,18.57
2024-01-09T01:05:38.854Z,23.23
2024-01-09T01:11:00.744Z,20.10
2024-01-09T01:16:22.529Z,17.97
2024-01-09T01:21:44.262Z,20.73
2024-01-09T01:27:06.063Z,17.33
2024-01-09T01:32:28.014Z,16.93
2024-01-09T01:37:49.957Z,20.10
2024-01-09T01:43:11.857Z,19.43
2024-01-09T01:48:35.240Z,20.30
2024-01-09T01:53:57.287Z,19.50
2024-01-09T01:59:22.771Z,20.67
2024-01-09T02:04:45.555Z,19.67
2024-01-09T02:10:07.788Z,19.50
2024-01-09T02:15:29.591Z,21.53
2024-01-09T02:20:51.448Z,20.93
2024-01-09T02:26:38.891Z,21.33
2024-01-09T02:32:04.095Z,19.20
2024-01-09T02:37:26.346Z,18.90
2024-01-09T02:42:48.126Z,18.80
2024-01-09T02:48:10.125Z,19.37
2024-01-09T02:53:32.155Z,22.30
2024-01-09T02:58:55.120Z,18.93
2024-01-09T03:04:16.898Z,18.17
2024-01-09T03:09:38.763Z,22.80
2024-01-09T03:15:00.639Z,21.00
2024-01-09T03:20:22.418Z,19.47
2024-01-09T03:25:44.208Z,22.53
2024-01-09T03:31:06.025Z,18.43
2024-01-09T03:36:27.859Z,19.03
2024-01-09T03:41:49.967Z,16.60
2024-01-09T03:47:11.887Z,19.87
2024-01-09T03:52:33.682Z,21.27
2024-01-09T03:57:55.443Z,20.00
2024-01-09T04:03:17.245Z,18.53
2024-01-09T04:08:39.082Z,20.80
2024-01-09T04:14:00.931Z,19.60
2024-01-09T04:19:23.261Z,21.40
2024-01-09T04:24:45.085Z,20.40
2024-01-09T04:30:07.750Z,20.30
2024-01-09T04:35:29.645Z,20.27
2024-01-09T04:40:51.556Z,17.23
2024-01-09T04:46:13.770Z,21.03
2024-01-09T04:51:35.475Z,16.43
2024-01-09T04:56:59.508Z,19.13
2024-01-09T05:02:21.726Z,22.00
2024-01-09T05:07:43.631Z,19.27
2024-01-09T05:13:05.837Z,17.80
2024-01-09T05:18:27.806Z,18.87
2024-01-09T05:23:58.543Z,17.87
2024-01-09T05:29:20.474Z,17.40
2024-01-09T05:34:42.297Z,18.50
2024-01-09T05:40:05.184Z,15.27
2024-01-09T05:45:27.071Z,16.33
2024-01-09T05:50:48.963Z,17.97
2024-01-09T05:56:11.099Z,20.20
2024-01-09T06:01:32.874Z,16.20
2024-01-09T06:06:54.819Z,20.10
2024-01-09T06:12:17.786Z,18.53
2024-01-09T06:17:39.887Z,18.10
2024-01-09T06:23:01.910Z,17.83
2024-01-09T06:28:23.729Z,19.43
2024-01-09T06:33:45.774Z,16.93
2024-01-09T06:39:07.721Z,17.63
2024-01-09T06:44:29.518Z,16.03
2024-01-09T06:49:54.504Z,18.87
2024-01-09T06:55:16.874Z,20.00
2024-01-09T07:00:38.937Z,18.87
2024-01-09T07:06:00.958Z,19.60
2024-01-09T07:11:23.044Z,17.00
2024-01-09T07:16:44.904Z,21.43
2024-01-09T07:22:06.894Z,22.80
2024-01-09T07:27:28.770Z,20.60
2024-01-09T07:32:50.744Z,17.90
2024-01-09T07:38:12.664Z,20.50
2024-01-09T07:43:34.616Z,18.67
2024-01-09T07:48:56.655Z,22.20
2024-01-09T07:54:18.653Z,19.87
2024-01-09T07:59:44.154Z,24.03
2024-01-09T08:05:06.605Z,26.20
2024-01-09T08:10:28.689Z,19.83
2024-01-09T08:15:50.511Z,24.07
2024-01-09T08:21:13.719Z,22.37
2024-01-09T08:26:35.901Z,19.57
2024-01-09T08:31:58.638Z,22.17
2024-01-09T08:37:20.640Z,20.73
2024-01-09T08:42:42.568Z,19.80
2024-01-09T08:48:04.951Z,18.50
2024-01-09T08:53:29.660Z,20.87
2024-01-09T08:58:51.671Z,19.27
2024-01-09T09:04:13.741Z,22.13
2024-01-09T09:09:37.127Z,23.00
2024-01-09T09:14:59.080Z,25.23
2024-01-09T09:20:21.699Z,21.27
2024-01-09T09:25:43.645Z,19.57
2024-01-09T09:31:06.210Z,20.00
2024-01-09T09:36:28.489Z,19.37
2024-01-09T09:41:58.464Z,20.30
2024-01-09T09:47:22.200Z,19.43
2024-01-09T09:52:44.171Z,20.17
2024-01-09T09:58:07.268Z,21.67
2024-01-09T10:03:35.152Z,21.30
2024-01-09T10:08:58.013Z,22.80
2024-01-09T10:14:20.145Z,18.13
2024-01-09T10:19:43.865Z,17.27
2024-01-09T10:25:07.578Z,16.83
2024-01-09T10:30:29.798Z,19.30
2024-01-09T10:35:51.781Z,16.10
2024-01-09T10:41:17.325Z,18.90
2024-01-09T10:46:39.356Z,19.57
2024-01-09T10:52:01.760Z,20.40
2024-01-09T10:57:23.806Z,17.43
2024-01-09T11:02:45.764Z,19.57
2024-01-09T11:08:13.884Z,18.60
2024-01-09T11:13:40.421Z,20.40
2024-01-09T11:19:04.499Z,16.43
2024-01-09T11:24:26.860Z,15.57
2024-01-09T11:29:50.331Z,19.43
2024-01-09T11:35:24.343Z,18.05
2024-01-09T11:40:46.255Z,15.98
2024-01-09T11:46:08.089Z,15.57
2024-01-09T11:51:34.572Z,19.73
2024-01-09T11:56:56.782Z,16.13
2024-01-09T12:02:22.088Z,18.93
2024-01-09T12:07:44.734Z,16.13
2024-01-09T12:13:06.676Z,26.53
2024-01-09T12:18:28.664Z,15.47
2024-01-09T12:24:10.958Z,15.83
2024-01-09T12:29:33.486Z,15.90
2024-01-09T12:34:56.245Z,19.92
2024-01-09T12:40:19.747Z,15.82
2024-01-09T12:45:43.216Z,15.95
2024-01-09T12:51:10.076Z,15.05
2024-01-09T12:56:31.945Z,15.43
2024-01-09T13:01:55.216Z,15.48
2024-01-09T13:07:19.079Z,16.33
2024-01-09T13:12:40.901Z,14.63
2024-01-09T13:18:03.429Z,12.13
2024-01-09T13:23:47.959Z,14.20
2024-01-09T13:34:32.513Z,12.45
2024-01-09T13:39:54.451Z,14.45
2024-01-09T13:45:17.690Z,17.10
2024-01-09T13:56:05.477Z,13.13
2024-01-09T14:01:34.478Z,15.00
2024-01-09T14:07:02.102Z,17.00
2024-01-09T14:12:24.032Z,16.80
2024-01-09T14:17:46.197Z,16.37
2024-01-09T14:23:08.405Z,15.53
2024-01-09T14:28:31.189Z,18.87
2024-01-09T14:33:53.067Z,15.93
2024-01-09T14:39:17.072Z,16.83
2024-01-09T14:44:40.103Z,15.80
2024-01-09T14:50:02.036Z,17.43
2024-01-09T14:55:25.552Z,15.03
2024-01-09T15:00:48.071Z,15.13
2024-01-09T15:06:13.072Z,17.03
2024-01-09T15:11:36.069Z,15.13
2024-01-09T15:16:58.585Z,15.50
2024-01-09T15:22:20.564Z,18.97
2024-01-09T15:27:42.432Z,17.63
2024-01-09T15:33:09.048Z,17.00
2024-01-09T15:38:35.304Z,19.30
2024-01-09T15:43:57.642Z,17.53
2024-01-09T15:49:19.584Z,18.70
2024-01-09T15:54:42.703Z,22.93
2024-01-09T16:00:06.712Z,21.57
2024-01-09T16:05:29.492Z,18.77
2024-01-09T16:10:51.361Z,18.53
2024-01-09T16:16:22.573Z,18.80
2024-01-09T16:21:45.282Z,19.00
2024-01-09T16:27:07.188Z,17.13
2024-01-09T16:32:29.132Z,16.57
2024-01-09T16:37:51.212Z,22.23
2024-01-09T16:43:14.625Z,16.80
2024-01-09T16:48:41.686Z,18.10
2024-01-09T16:54:06.869Z,15.43
2024-01-09T16:59:28.820Z,20.87
2024-01-09T17:04:51.175Z,18.73
2024-01-09T17:10:13.063Z,17.80
2024-01-09T17:15:35.070Z,20.80
2024-01-09T17:20:57.348Z,22.03
2024-01-09T17:26:19.537Z,26.17
2024-01-09T17:31:41.424Z,28.37
2024-01-09T17:37:03.531Z,25.37
2024-01-09T17:42:27.889Z,23.80
2024-01-09T17:47:49.805Z,22.17
2024-01-09T17:53:11.762Z,20.60
2024-01-09T17:58:34.878Z,20.47
2024-01-09T18:03:56.959Z,22.67
2024-01-09T18:09:26.862Z,19.60
2024-01-09T18:14:48.670Z,19.07
2024-01-09T18:20:11.168Z,21.87
2024-01-09T18:25:33.114Z,22.37
2024-01-09T18:30:55.101Z,21.40
2024-01-09T18:36:17.152Z,20.30
2024-01-09T18:41:38.943Z,26.43
2024-01-09T18:47:01.283Z,20.07
2024-01-09T18:52:23.233Z,24.80
2024-01-09T18:57:45.056Z,26.13
2024-01-09T19:03:06.928Z,24.03
2024-01-09T19:08:28.795Z,27.80
2024-01-09T19:13:50.754Z,25.03
2024-01-09T19:19:14.593Z,26.40
2024-01-09T19:24:40.892Z,26.53
2024-01-09T19:30:02.744Z,27.40
2024-01-09T19:35:24.869Z,25.60
2024-01-09T19:40:46.756Z,29.97
2024-01-09T19:46:08.548Z,24.43
2024-01-09T19:51:33.058Z,21.60
2024-01-09T19:56:54.864Z,27.03
2024-01-09T20:02:19.099Z,26.90
2024-01-09T20:07:41.363Z,27.57
2024-01-09T20:13:06.480Z,34.97
2024-01-09T20:18:28.321Z,28.43
2024-01-09T20:23:50.198Z,25.03
2024-01-09T20:29:14.362Z,24.67
2024-01-09T20:34:36.927Z,21.97
2024-01-09T20:39:59.180Z,26.73
2024-01-09T20:45:22.733Z,23.27
2024-01-09T20:50:45.734Z,23.47
2024-01-09T20:56:07.940Z,25.00
2024-01-09T21:01:34.017Z,34.93
2024-01-09T21:06:55.811Z,27.73
2024-01-09T21:12:17.761Z,22.87
2024-01-09T21:17:40.671Z,32.30
2024-01-09T21:23:03.778Z,31.00
2024-01-09T21:28:25.995Z,30.03
2024-01-09T21:33:47.872Z,29.73
2024-01-09T21:39:09.799Z,32.47
2024-01-09T21:44:31.907Z,30.07
2024-01-09T21:49:53.799Z,29.07
2024-01-09T21:55:15.881Z,28.47
2024-01-09T22:00:37.800Z,26.20
2024-01-09T22:05:59.747Z,29.87
2024-01-09T22:11:21.676Z,27.83
2024-01-09T22:16:44.325Z,28.00
2024-01-09T22:22:08.177Z,31.50
2024-01-09T22:27:30.034Z,24.60
2024-01-09T22:32:51.923Z,29.10
2024-01-09T22:38:13.754Z,24.50
2024-01-09T22:43:35.613Z,27.83
2024-01-09T22:48:57.522Z,21.57
2024-01-09T22:54:19.664Z,28.03
2024-01-09T22:59:41.654Z,29.40
2024-01-09T23:05:03.733Z,21.30
2024-01-09T23:10:25.596Z,22.83
2024-01-09T23:15:47.621Z,20.93
2024-01-09T23:21:09.582Z,21.00
2024-01-09T23:26:31.370Z,21.77
2024-01-09T23:31:53.167Z,18.30
2024-01-09T23:37:15.402Z,21.00
2024-01-09T23:42:37.572Z,19.07
2024-01-09T23:47:59.402Z,19.40
2024-01-09T23:53:21.318Z,19.23
2024-01-09T23:58:43.362Z,21.40
